sensor_id;sensor_type;location;lat;lon;timestamp;P1;durP1;ratioP1;P2;durP2;ratioP2
14923;SDS011;7554;43.600;1.480;2022-12-18T00:02:24;17.73;;;12.20;;
14923;SDS011;7554;43.600;1.480;2022-12-18T00:04:52;16.43;;;11.17;;
14923;SDS011;7554;43.600;1.480;2022-12-18T00:07:19;17.33;;;11.57;;
14923;SDS011;7554;43.600;1.480;2022-12-18T00:09:47;19.33;;;12.07;;
14923;SDS011;7554;43.600;1.480;2022-12-18T00:12:14;16.40;;;12.50;;
14923;SDS011;7554;43.600;1.480;2022-12-18T00:14:43;17.60;;;11.60;;
14923;SDS011;7554;43.600;1.480;2022-12-18T00:17:11;13.10;;;10.73;;
14923;SDS011;7554;43.600;1.480;2022-12-18T00:19:38;15.20;;;10.33;;
14923;SDS011;7554;43.600;1.480;2022-12-18T00:22:06;15.07;;;10.30;;
14923;SDS011;7554;43.600;1.480;2022-12-18T00:24:33;13.30;;;9.93;;
14923;SDS011;7554;43.600;1.480;2022-12-18T00:27:01;13.40;;;10.70;;
14923;SDS011;7554;43.600;1.480;2022-12-18T00:29:28;18.03;;;10.63;;
14923;SDS011;7554;43.600;1.480;2022-12-18T00:31:57;12.83;;;10.47;;
14923;SDS011;7554;43.600;1.480;2022-12-18T00:34:25;15.40;;;10.40;;
14923;SDS011;7554;43.600;1.480;2022-12-18T00:36:52;10.90;;;9.37;;
14923;SDS011;7554;43.600;1.480;2022-12-18T00:39:19;13.10;;;9.73;;
14923;SDS011;7554;43.600;1.480;2022-12-18T00:41:47;12.30;;;9.93;;
14923;SDS011;7554;43.600;1.480;2022-12-18T00:44:32;13.00;;;8.97;;
14923;SDS011;7554;43.600;1.480;2022-12-18T00:47:01;12.33;;;9.27;;
14923;SDS011;7554;43.600;1.480;2022-12-18T00:49:28;12.67;;;9.90;;
14923;SDS011;7554;43.600;1.480;2022-12-18T00:51:56;15.10;;;9.97;;
14923;SDS011;7554;43.600;1.480;2022-12-18T00:54:23;12.10;;;9.43;;
14923;SDS011;7554;43.600;1.480;2022-12-18T00:56:51;11.73;;;9.73;;
14923;SDS011;7554;43.600;1.480;2022-12-18T00:59:20;14.13;;;9.83;;
14923;SDS011;7554;43.600;1.480;2022-12-18T01:01:47;13.23;;;9.47;;
14923;SDS011;7554;43.600;1.480;2022-12-18T01:04:16;12.17;;;9.00;;
14923;SDS011;7554;43.600;1.480;2022-12-18T01:06:44;11.00;;;9.00;;
14923;SDS011;7554;43.600;1.480;2022-12-18T01:09:11;13.00;;;9.63;;
14923;SDS011;7554;43.600;1.480;2022-12-18T01:11:39;13.87;;;10.10;;
14923;SDS011;7554;43.600;1.480;2022-12-18T01:14:06;13.40;;;10.03;;
14923;SDS011;7554;43.600;1.480;2022-12-18T01:16:34;13.87;;;10.43;;
14923;SDS011;7554;43.600;1.480;2022-12-18T01:19:02;12.80;;;9.70;;
14923;SDS011;7554;43.600;1.480;2022-12-18T01:21:31;13.63;;;9.60;;
14923;SDS011;7554;43.600;1.480;2022-12-18T01:23:58;13.80;;;10.13;;
14923;SDS011;7554;43.600;1.480;2022-12-18T01:26:26;15.87;;;11.23;;
14923;SDS011;7554;43.600;1.480;2022-12-18T01:28:55;13.47;;;9.83;;
14923;SDS011;7554;43.600;1.480;2022-12-18T01:31:23;13.03;;;10.23;;
14923;SDS011;7554;43.600;1.480;2022-12-18T01:33:52;13.33;;;10.23;;
14923;SDS011;7554;43.600;1.480;2022-12-18T01:36:21;13.27;;;10.23;;
14923;SDS011;7554;43.600;1.480;2022-12-18T01:38:51;13.30;;;10.40;;
14923;SDS011;7554;43.600;1.480;2022-12-18T01:41:20;14.30;;;10.63;;
14923;SDS011;7554;43.600;1.480;2022-12-18T01:43:49;15.00;;;10.67;;
14923;SDS011;7554;43.600;1.480;2022-12-18T01:46:18;13.00;;;9.83;;
14923;SDS011;7554;43.600;1.480;2022-12-18T01:48:50;14.03;;;9.90;;
14923;SDS011;7554;43.600;1.480;2022-12-18T01:51:21;12.50;;;9.43;;
14923;SDS011;7554;43.600;1.480;2022-12-18T01:53:50;15.00;;;10.03;;
14923;SDS011;7554;43.600;1.480;2022-12-18T01:56:18;15.53;;;10.60;;
14923;SDS011;7554;43.600;1.480;2022-12-18T01:58:50;14.90;;;10.90;;
14923;SDS011;7554;43.600;1.480;2022-12-18T02:01:22;13.43;;;10.17;;
14923;SDS011;7554;43.600;1.480;2022-12-18T02:03:51;14.37;;;10.93;;
14923;SDS011;7554;43.600;1.480;2022-12-18T02:06:20;12.43;;;10.23;;
14923;SDS011;7554;43.600;1.480;2022-12-18T02:09:00;13.87;;;10.30;;
14923;SDS011;7554;43.600;1.480;2022-12-18T02:11:35;13.80;;;10.67;;
14923;SDS011;7554;43.600;1.480;2022-12-18T02:14:10;13.97;;;10.40;;
14923;SDS011;7554;43.600;1.480;2022-12-18T02:16:45;13.27;;;9.90;;
14923;SDS011;7554;43.600;1.480;2022-12-18T02:22:23;16.57;;;10.33;;
14923;SDS011;7554;43.600;1.480;2022-12-18T02:25:04;13.20;;;10.07;;
14923;SDS011;7554;43.600;1.480;2022-12-18T02:27:45;16.23;;;10.43;;
14923;SDS011;7554;43.600;1.480;2022-12-18T02:30:15;15.27;;;10.90;;
14923;SDS011;7554;43.600;1.480;2022-12-18T02:32:45;14.77;;;10.47;;
14923;SDS011;7554;43.600;1.480;2022-12-18T02:35:16;14.40;;;10.20;;
14923;SDS011;7554;43.600;1.480;2022-12-18T02:37:49;12.40;;;10.43;;
14923;SDS011;7554;43.600;1.480;2022-12-18T02:40:17;14.80;;;10.57;;
14923;SDS011;7554;43.600;1.480;2022-12-18T02:42:48;13.80;;;10.43;;
14923;SDS011;7554;43.600;1.480;2022-12-18T02:45:16;14.00;;;10.70;;
14923;SDS011;7554;43.600;1.480;2022-12-18T02:47:45;14.10;;;11.20;;
14923;SDS011;7554;43.600;1.480;2022-12-18T02:50:17;14.83;;;10.90;;
14923;SDS011;7554;43.600;1.480;2022-12-18T02:52:53;15.63;;;10.20;;
14923;SDS011;7554;43.600;1.480;2022-12-18T02:55:29;14.00;;;10.57;;
14923;SDS011;7554;43.600;1.480;2022-12-18T02:58:09;16.47;;;10.57;;
14923;SDS011;7554;43.600;1.480;2022-12-18T03:00:43;13.40;;;10.57;;
14923;SDS011;7554;43.600;1.480;2022-12-18T03:03:16;15.17;;;10.63;;
14923;SDS011;7554;43.600;1.480;2022-12-18T03:05:50;13.60;;;10.43;;
14923;SDS011;7554;43.600;1.480;2022-12-18T03:08:22;12.50;;;10.33;;
14923;SDS011;7554;43.600;1.480;2022-12-18T03:10:54;13.67;;;10.03;;
14923;SDS011;7554;43.600;1.480;2022-12-18T03:13:27;12.87;;;10.17;;
14923;SDS011;7554;43.600;1.480;2022-12-18T03:15:59;16.70;;;11.27;;
14923;SDS011;7554;43.600;1.480;2022-12-18T03:18:30;15.97;;;10.93;;
14923;SDS011;7554;43.600;1.480;2022-12-18T03:21:04;15.23;;;10.80;;
14923;SDS011;7554;43.600;1.480;2022-12-18T03:23:34;15.03;;;10.70;;
14923;SDS011;7554;43.600;1.480;2022-12-18T03:26:07;20.53;;;11.50;;
14923;SDS011;7554;43.600;1.480;2022-12-18T03:28:42;15.03;;;11.17;;
14923;SDS011;7554;43.600;1.480;2022-12-18T03:31:14;14.77;;;10.47;;
14923;SDS011;7554;43.600;1.480;2022-12-18T03:33:42;14.87;;;10.63;;
14923;SDS011;7554;43.600;1.480;2022-12-18T03:36:13;15.43;;;10.77;;
14923;SDS011;7554;43.600;1.480;2022-12-18T03:38:41;14.23;;;10.87;;
14923;SDS011;7554;43.600;1.480;2022-12-18T03:41:11;14.07;;;10.97;;
14923;SDS011;7554;43.600;1.480;2022-12-18T03:43:48;14.00;;;10.87;;
14923;SDS011;7554;43.600;1.480;2022-12-18T03:46:22;14.97;;;11.53;;
14923;SDS011;7554;43.600;1.480;2022-12-18T03:48:58;15.37;;;9.90;;
14923;SDS011;7554;43.600;1.480;2022-12-18T03:51:30;16.37;;;11.80;;
14923;SDS011;7554;43.600;1.480;2022-12-18T03:54:05;18.30;;;12.27;;
14923;SDS011;7554;43.600;1.480;2022-12-18T03:56:36;17.23;;;11.43;;
14923;SDS011;7554;43.600;1.480;2022-12-18T03:59:08;17.37;;;11.20;;
14923;SDS011;7554;43.600;1.480;2022-12-18T04:01:39;18.13;;;9.00;;
14923;SDS011;7554;43.600;1.480;2022-12-18T04:04:09;21.43;;;10.33;;
14923;SDS011;7554;43.600;1.480;2022-12-18T04:06:39;16.60;;;11.10;;
14923;SDS011;7554;43.600;1.480;2022-12-18T04:09:08;16.53;;;10.27;;
14923;SDS011;7554;43.600;1.480;2022-12-18T04:11:35;16.53;;;9.50;;
14923;SDS011;7554;43.600;1.480;2022-12-18T04:14:03;16.70;;;10.27;;
14923;SDS011;7554;43.600;1.480;2022-12-18T04:16:31;24.27;;;10.90;;
14923;SDS011;7554;43.600;1.480;2022-12-18T04:18:59;15.23;;;10.10;;
14923;SDS011;7554;43.600;1.480;2022-12-18T04:21:26;30.47;;;10.80;;
14923;SDS011;7554;43.600;1.480;2022-12-18T04:23:54;15.63;;;10.40;;
14923;SDS011;7554;43.600;1.480;2022-12-18T04:26:21;14.77;;;10.53;;
14923;SDS011;7554;43.600;1.480;2022-12-18T04:28:49;15.63;;;10.27;;
14923;SDS011;7554;43.600;1.480;2022-12-18T04:31:16;15.07;;;10.20;;
14923;SDS011;7554;43.600;1.480;2022-12-18T04:33:45;16.83;;;10.00;;
14923;SDS011;7554;43.600;1.480;2022-12-18T04:36:13;15.50;;;10.57;;
14923;SDS011;7554;43.600;1.480;2022-12-18T04:38:40;15.90;;;10.07;;
14923;SDS011;7554;43.600;1.480;2022-12-18T04:41:07;12.23;;;9.90;;
14923;SDS011;7554;43.600;1.480;2022-12-18T04:43:35;14.17;;;10.37;;
14923;SDS011;7554;43.600;1.480;2022-12-18T04:46:03;12.17;;;9.60;;
14923;SDS011;7554;43.600;1.480;2022-12-18T04:48:31;14.97;;;9.60;;
14923;SDS011;7554;43.600;1.480;2022-12-18T04:51:00;11.83;;;9.60;;
14923;SDS011;7554;43.600;1.480;2022-12-18T04:53:27;11.97;;;9.30;;
14923;SDS011;7554;43.600;1.480;2022-12-18T04:56:05;12.07;;;9.57;;
14923;SDS011;7554;43.600;1.480;2022-12-18T04:58:34;12.47;;;9.27;;
14923;SDS011;7554;43.600;1.480;2022-12-18T05:01:01;13.83;;;9.67;;
14923;SDS011;7554;43.600;1.480;2022-12-18T05:03:29;13.67;;;9.53;;
14923;SDS011;7554;43.600;1.480;2022-12-18T05:05:57;11.53;;;8.97;;
14923;SDS011;7554;43.600;1.480;2022-12-18T05:08:25;12.33;;;9.37;;
14923;SDS011;7554;43.600;1.480;2022-12-18T05:10:58;11.40;;;8.77;;
14923;SDS011;7554;43.600;1.480;2022-12-18T05:13:26;12.17;;;9.67;;
14923;SDS011;7554;43.600;1.480;2022-12-18T05:15:54;10.90;;;8.87;;
14923;SDS011;7554;43.600;1.480;2022-12-18T05:18:22;11.93;;;9.07;;
14923;SDS011;7554;43.600;1.480;2022-12-18T05:20:49;12.00;;;8.87;;
14923;SDS011;7554;43.600;1.480;2022-12-18T05:23:17;11.00;;;8.40;;
14923;SDS011;7554;43.600;1.480;2022-12-18T05:25:50;11.10;;;8.37;;
14923;SDS011;7554;43.600;1.480;2022-12-18T05:28:17;10.90;;;7.97;;
14923;SDS011;7554;43.600;1.480;2022-12-18T05:30:47;11.73;;;8.97;;
14923;SDS011;7554;43.600;1.480;2022-12-18T05:33:16;10.63;;;8.40;;
14923;SDS011;7554;43.600;1.480;2022-12-18T05:35:44;11.30;;;8.73;;
14923;SDS011;7554;43.600;1.480;2022-12-18T05:38:16;10.57;;;8.47;;
14923;SDS011;7554;43.600;1.480;2022-12-18T05:40:44;11.80;;;8.87;;
14923;SDS011;7554;43.600;1.480;2022-12-18T05:43:13;12.37;;;9.30;;
14923;SDS011;7554;43.600;1.480;2022-12-18T05:45:41;12.00;;;9.27;;
14923;SDS011;7554;43.600;1.480;2022-12-18T05:48:08;12.67;;;9.90;;
14923;SDS011;7554;43.600;1.480;2022-12-18T05:50:36;12.30;;;9.43;;
14923;SDS011;7554;43.600;1.480;2022-12-18T05:53:05;12.67;;;9.60;;
14923;SDS011;7554;43.600;1.480;2022-12-18T05:55:35;14.53;;;9.20;;
14923;SDS011;7554;43.600;1.480;2022-12-18T05:58:05;12.20;;;9.47;;
14923;SDS011;7554;43.600;1.480;2022-12-18T06:00:35;12.07;;;9.27;;
14923;SDS011;7554;43.600;1.480;2022-12-18T06:03:05;10.63;;;9.07;;
14923;SDS011;7554;43.600;1.480;2022-12-18T06:05:34;12.40;;;9.43;;
14923;SDS011;7554;43.600;1.480;2022-12-18T06:08:02;12.23;;;9.60;;
14923;SDS011;7554;43.600;1.480;2022-12-18T06:10:30;12.47;;;9.90;;
14923;SDS011;7554;43.600;1.480;2022-12-18T06:12:58;11.17;;;9.10;;
14923;SDS011;7554;43.600;1.480;2022-12-18T06:15:25;11.77;;;9.77;;
14923;SDS011;7554;43.600;1.480;2022-12-18T06:17:54;12.63;;;9.33;;
14923;SDS011;7554;43.600;1.480;2022-12-18T06:20:22;12.53;;;9.80;;
14923;SDS011;7554;43.600;1.480;2022-12-18T06:22:49;11.93;;;9.33;;
14923;SDS011;7554;43.600;1.480;2022-12-18T06:25:17;12.80;;;10.10;;
14923;SDS011;7554;43.600;1.480;2022-12-18T06:27:46;12.17;;;9.90;;
14923;SDS011;7554;43.600;1.480;2022-12-18T06:30:14;10.60;;;8.73;;
14923;SDS011;7554;43.600;1.480;2022-12-18T06:32:42;11.33;;;9.40;;
14923;SDS011;7554;43.600;1.480;2022-12-18T06:35:11;12.13;;;8.37;;
14923;SDS011;7554;43.600;1.480;2022-12-18T06:37:38;11.77;;;9.13;;
14923;SDS011;7554;43.600;1.480;2022-12-18T06:40:06;12.43;;;9.90;;
14923;SDS011;7554;43.600;1.480;2022-12-18T06:42:34;12.67;;;9.43;;
14923;SDS011;7554;43.600;1.480;2022-12-18T06:45:02;12.40;;;9.30;;
14923;SDS011;7554;43.600;1.480;2022-12-18T06:47:30;12.40;;;9.80;;
14923;SDS011;7554;43.600;1.480;2022-12-18T06:49:57;11.37;;;8.97;;
14923;SDS011;7554;43.600;1.480;2022-12-18T06:52:26;11.90;;;9.73;;
14923;SDS011;7554;43.600;1.480;2022-12-18T06:54:54;11.80;;;9.30;;
14923;SDS011;7554;43.600;1.480;2022-12-18T06:57:21;13.27;;;9.50;;
14923;SDS011;7554;43.600;1.480;2022-12-18T06:59:48;14.13;;;9.70;;
14923;SDS011;7554;43.600;1.480;2022-12-18T07:02:16;13.33;;;9.33;;
14923;SDS011;7554;43.600;1.480;2022-12-18T07:04:43;12.50;;;9.93;;
14923;SDS011;7554;43.600;1.480;2022-12-18T07:07:11;13.67;;;9.60;;
14923;SDS011;7554;43.600;1.480;2022-12-18T07:09:40;11.70;;;8.73;;
14923;SDS011;7554;43.600;1.480;2022-12-18T07:12:07;11.47;;;9.23;;
14923;SDS011;7554;43.600;1.480;2022-12-18T07:14:35;13.37;;;9.63;;
14923;SDS011;7554;43.600;1.480;2022-12-18T07:17:02;11.20;;;9.23;;
14923;SDS011;7554;43.600;1.480;2022-12-18T07:19:30;12.10;;;9.37;;
14923;SDS011;7554;43.600;1.480;2022-12-18T07:21:57;13.57;;;9.13;;
14923;SDS011;7554;43.600;1.480;2022-12-18T07:24:25;11.97;;;8.93;;
14923;SDS011;7554;43.600;1.480;2022-12-18T07:26:54;13.57;;;9.67;;
14923;SDS011;7554;43.600;1.480;2022-12-18T07:29:22;13.20;;;9.77;;
14923;SDS011;7554;43.600;1.480;2022-12-18T07:31:49;13.77;;;10.57;;
14923;SDS011;7554;43.600;1.480;2022-12-18T07:34:17;12.53;;;9.97;;
14923;SDS011;7554;43.600;1.480;2022-12-18T07:36:44;11.77;;;9.50;;
14923;SDS011;7554;43.600;1.480;2022-12-18T07:39:12;13.53;;;10.23;;
14923;SDS011;7554;43.600;1.480;2022-12-18T07:41:39;12.10;;;9.40;;
14923;SDS011;7554;43.600;1.480;2022-12-18T07:44:12;11.20;;;9.10;;
14923;SDS011;7554;43.600;1.480;2022-12-18T07:46:40;12.20;;;8.80;;
14923;SDS011;7554;43.600;1.480;2022-12-18T07:49:07;12.97;;;8.50;;
14923;SDS011;7554;43.600;1.480;2022-12-18T07:51:35;11.83;;;9.13;;
14923;SDS011;7554;43.600;1.480;2022-12-18T07:54:02;14.27;;;10.77;;
14923;SDS011;7554;43.600;1.480;2022-12-18T07:56:30;16.17;;;12.00;;
14923;SDS011;7554;43.600;1.480;2022-12-18T07:58:58;14.13;;;10.33;;
14923;SDS011;7554;43.600;1.480;2022-12-18T08:01:29;13.57;;;9.77;;
14923;SDS011;7554;43.600;1.480;2022-12-18T08:03:57;13.83;;;10.20;;
14923;SDS011;7554;43.600;1.480;2022-12-18T08:06:24;12.03;;;9.30;;
14923;SDS011;7554;43.600;1.480;2022-12-18T08:08:52;13.07;;;9.87;;
14923;SDS011;7554;43.600;1.480;2022-12-18T08:11:20;14.60;;;9.63;;
14923;SDS011;7554;43.600;1.480;2022-12-18T08:13:48;11.20;;;9.10;;
14923;SDS011;7554;43.600;1.480;2022-12-18T08:16:16;11.37;;;9.20;;
14923;SDS011;7554;43.600;1.480;2022-12-18T08:18:46;11.77;;;9.33;;
14923;SDS011;7554;43.600;1.480;2022-12-18T08:21:14;13.63;;;10.23;;
14923;SDS011;7554;43.600;1.480;2022-12-18T08:23:43;11.27;;;8.97;;
14923;SDS011;7554;43.600;1.480;2022-12-18T08:26:11;13.33;;;9.90;;
14923;SDS011;7554;43.600;1.480;2022-12-18T08:28:39;12.37;;;9.70;;
14923;SDS011;7554;43.600;1.480;2022-12-18T08:31:07;15.90;;;10.50;;
14923;SDS011;7554;43.600;1.480;2022-12-18T08:33:35;17.20;;;10.27;;
14923;SDS011;7554;43.600;1.480;2022-12-18T08:36:06;22.20;;;9.60;;
14923;SDS011;7554;43.600;1.480;2022-12-18T08:38:35;15.97;;;10.70;;
14923;SDS011;7554;43.600;1.480;2022-12-18T08:41:03;12.80;;;9.50;;
14923;SDS011;7554;43.600;1.480;2022-12-18T08:43:31;12.23;;;9.37;;
14923;SDS011;7554;43.600;1.480;2022-12-18T08:46:16;13.40;;;8.97;;
14923;SDS011;7554;43.600;1.480;2022-12-18T08:48:44;12.87;;;9.13;;
14923;SDS011;7554;43.600;1.480;2022-12-18T08:51:15;9.37;;;7.27;;
14923;SDS011;7554;43.600;1.480;2022-12-18T08:53:43;10.10;;;7.37;;
14923;SDS011;7554;43.600;1.480;2022-12-18T08:56:10;11.15;;;8.35;;
14923;SDS011;7554;43.600;1.480;2022-12-18T08:58:39;14.47;;;7.57;;
14923;SDS011;7554;43.600;1.480;2022-12-18T09:01:08;7.00;;;4.67;;
14923;SDS011;7554;43.600;1.480;2022-12-18T09:03:37;8.13;;;5.80;;
14923;SDS011;7554;43.600;1.480;2022-12-18T09:06:04;6.50;;;4.67;;
14923;SDS011;7554;43.600;1.480;2022-12-18T09:08:34;7.70;;;5.70;;
14923;SDS011;7554;43.600;1.480;2022-12-18T09:11:02;9.07;;;4.73;;
14923;SDS011;7554;43.600;1.480;2022-12-18T09:13:30;7.20;;;4.90;;
14923;SDS011;7554;43.600;1.480;2022-12-18T09:15:58;5.03;;;3.67;;
14923;SDS011;7554;43.600;1.480;2022-12-18T09:18:25;7.27;;;5.50;;
14923;SDS011;7554;43.600;1.480;2022-12-18T09:20:53;10.50;;;6.10;;
14923;SDS011;7554;43.600;1.480;2022-12-18T09:23:21;7.60;;;4.50;;
14923;SDS011;7554;43.600;1.480;2022-12-18T09:25:50;6.93;;;4.33;;
14923;SDS011;7554;43.600;1.480;2022-12-18T09:28:17;6.20;;;4.37;;
14923;SDS011;7554;43.600;1.480;2022-12-18T09:30:46;7.80;;;4.73;;
14923;SDS011;7554;43.600;1.480;2022-12-18T09:33:16;6.47;;;4.43;;
14923;SDS011;7554;43.600;1.480;2022-12-18T09:35:44;8.57;;;5.20;;
14923;SDS011;7554;43.600;1.480;2022-12-18T09:38:12;6.17;;;4.27;;
14923;SDS011;7554;43.600;1.480;2022-12-18T09:40:43;8.50;;;4.83;;
14923;SDS011;7554;43.600;1.480;2022-12-18T09:43:14;5.67;;;4.70;;
14923;SDS011;7554;43.600;1.480;2022-12-18T09:45:46;5.00;;;3.67;;
14923;SDS011;7554;43.600;1.480;2022-12-18T09:48:19;5.73;;;3.53;;
14923;SDS011;7554;43.600;1.480;2022-12-18T09:50:50;5.10;;;3.77;;
14923;SDS011;7554;43.600;1.480;2022-12-18T09:53:22;5.60;;;4.17;;
14923;SDS011;7554;43.600;1.480;2022-12-18T09:55:54;6.43;;;3.80;;
14923;SDS011;7554;43.600;1.480;2022-12-18T09:58:26;5.60;;;3.97;;
14923;SDS011;7554;43.600;1.480;2022-12-18T10:00:58;6.10;;;3.70;;
14923;SDS011;7554;43.600;1.480;2022-12-18T10:03:26;6.63;;;3.63;;
14923;SDS011;7554;43.600;1.480;2022-12-18T10:05:55;6.60;;;4.83;;
14923;SDS011;7554;43.600;1.480;2022-12-18T10:08:31;8.80;;;4.33;;
14923;SDS011;7554;43.600;1.480;2022-12-18T10:11:12;4.80;;;3.60;;
14923;SDS011;7554;43.600;1.480;2022-12-18T10:13:56;7.27;;;3.63;;
14923;SDS011;7554;43.600;1.480;2022-12-18T10:16:30;4.97;;;4.00;;
14923;SDS011;7554;43.600;1.480;2022-12-18T10:19:12;5.17;;;3.23;;
14923;SDS011;7554;43.600;1.480;2022-12-18T10:21:51;4.40;;;3.70;;
14923;SDS011;7554;43.600;1.480;2022-12-18T10:24:26;5.77;;;3.20;;
14923;SDS011;7554;43.600;1.480;2022-12-18T10:27:04;4.67;;;3.37;;
14923;SDS011;7554;43.600;1.480;2022-12-18T10:29:40;4.23;;;3.27;;
14923;SDS011;7554;43.600;1.480;2022-12-18T10:32:09;5.33;;;3.60;;
14923;SDS011;7554;43.600;1.480;2022-12-18T10:34:44;4.50;;;3.20;;
14923;SDS011;7554;43.600;1.480;2022-12-18T10:37:14;4.23;;;3.40;;
14923;SDS011;7554;43.600;1.480;2022-12-18T10:39:45;4.33;;;2.90;;
14923;SDS011;7554;43.600;1.480;2022-12-18T10:42:16;4.13;;;3.10;;
14923;SDS011;7554;43.600;1.480;2022-12-18T10:44:46;2.83;;;1.63;;
14923;SDS011;7554;43.600;1.480;2022-12-18T10:47:28;4.13;;;2.37;;
14923;SDS011;7554;43.600;1.480;2022-12-18T10:49:56;3.97;;;2.80;;
14923;SDS011;7554;43.600;1.480;2022-12-18T10:52:24;4.50;;;3.03;;
14923;SDS011;7554;43.600;1.480;2022-12-18T10:54:54;5.53;;;3.20;;
14923;SDS011;7554;43.600;1.480;2022-12-18T10:57:33;6.03;;;3.27;;
14923;SDS011;7554;43.600;1.480;2022-12-18T11:02:55;5.50;;;3.03;;
14923;SDS011;7554;43.600;1.480;2022-12-18T11:05:24;7.23;;;3.60;;
14923;SDS011;7554;43.600;1.480;2022-12-18T11:07:54;5.03;;;2.50;;
14923;SDS011;7554;43.600;1.480;2022-12-18T11:10:23;4.53;;;2.47;;
14923;SDS011;7554;43.600;1.480;2022-12-18T11:12:55;4.70;;;2.90;;
14923;SDS011;7554;43.600;1.480;2022-12-18T11:15:24;5.77;;;2.40;;
14923;SDS011;7554;43.600;1.480;2022-12-18T11:17:56;6.30;;;3.10;;
14923;SDS011;7554;43.600;1.480;2022-12-18T11:20:27;3.30;;;2.60;;
14923;SDS011;7554;43.600;1.480;2022-12-18T11:22:59;3.50;;;2.20;;
14923;SDS011;7554;43.600;1.480;2022-12-18T11:25:29;3.50;;;2.40;;
14923;SDS011;7554;43.600;1.480;2022-12-18T11:27:59;4.03;;;3.07;;
14923;SDS011;7554;43.600;1.480;2022-12-18T11:30:31;3.93;;;2.73;;
14923;SDS011;7554;43.600;1.480;2022-12-18T11:33:01;4.00;;;2.87;;
14923;SDS011;7554;43.600;1.480;2022-12-18T11:35:40;4.37;;;2.27;;
14923;SDS011;7554;43.600;1.480;2022-12-18T11:38:17;3.07;;;2.50;;
14923;SDS011;7554;43.600;1.480;2022-12-18T11:40:51;3.83;;;3.00;;
14923;SDS011;7554;43.600;1.480;2022-12-18T11:43:25;3.80;;;2.63;;
14923;SDS011;7554;43.600;1.480;2022-12-18T11:45:59;6.53;;;2.73;;
14923;SDS011;7554;43.600;1.480;2022-12-18T11:48:32;4.90;;;3.13;;
14923;SDS011;7554;43.600;1.480;2022-12-18T11:51:04;3.50;;;2.43;;
14923;SDS011;7554;43.600;1.480;2022-12-18T11:53:38;5.10;;;3.20;;
14923;SDS011;7554;43.600;1.480;2022-12-18T11:56:11;4.07;;;2.47;;
14923;SDS011;7554;43.600;1.480;2022-12-18T11:58:58;3.43;;;2.53;;
14923;SDS011;7554;43.600;1.480;2022-12-18T12:01:37;4.87;;;3.00;;
14923;SDS011;7554;43.600;1.480;2022-12-18T12:07:11;3.60;;;2.80;;
14923;SDS011;7554;43.600;1.480;2022-12-18T12:09:53;4.53;;;2.80;;
14923;SDS011;7554;43.600;1.480;2022-12-18T12:12:30;3.37;;;2.50;;
14923;SDS011;7554;43.600;1.480;2022-12-18T12:15:13;4.23;;;2.53;;
14923;SDS011;7554;43.600;1.480;2022-12-18T12:17:52;3.90;;;2.80;;
14923;SDS011;7554;43.600;1.480;2022-12-18T12:20:24;3.33;;;2.57;;
14923;SDS011;7554;43.600;1.480;2022-12-18T12:23:03;4.00;;;3.03;;
14923;SDS011;7554;43.600;1.480;2022-12-18T12:25:36;5.73;;;2.67;;
14923;SDS011;7554;43.600;1.480;2022-12-18T12:28:13;3.53;;;2.63;;
14923;SDS011;7554;43.600;1.480;2022-12-18T12:30:54;4.17;;;3.37;;
14923;SDS011;7554;43.600;1.480;2022-12-18T12:33:32;3.50;;;2.73;;
14923;SDS011;7554;43.600;1.480;2022-12-18T12:36:07;4.80;;;3.63;;
14923;SDS011;7554;43.600;1.480;2022-12-18T12:38:42;5.73;;;3.50;;
14923;SDS011;7554;43.600;1.480;2022-12-18T12:41:16;4.50;;;3.13;;
14923;SDS011;7554;43.600;1.480;2022-12-18T12:44:04;4.47;;;2.50;;
14923;SDS011;7554;43.600;1.480;2022-12-18T12:46:34;6.93;;;3.47;;
14923;SDS011;7554;43.600;1.480;2022-12-18T12:49:09;5.87;;;2.97;;
14923;SDS011;7554;43.600;1.480;2022-12-18T12:51:41;4.00;;;2.57;;
14923;SDS011;7554;43.600;1.480;2022-12-18T12:54:12;3.97;;;2.33;;
14923;SDS011;7554;43.600;1.480;2022-12-18T12:56:44;4.73;;;3.43;;
14923;SDS011;7554;43.600;1.480;2022-12-18T12:59:19;5.63;;;3.40;;
14923;SDS011;7554;43.600;1.480;2022-12-18T13:01:58;6.73;;;3.70;;
14923;SDS011;7554;43.600;1.480;2022-12-18T13:04:33;7.83;;;3.57;;
14923;SDS011;7554;43.600;1.480;2022-12-18T13:07:08;7.10;;;3.53;;
14923;SDS011;7554;43.600;1.480;2022-12-18T13:12:50;5.00;;;3.60;;
14923;SDS011;7554;43.600;1.480;2022-12-18T13:15:21;4.33;;;3.10;;
14923;SDS011;7554;43.600;1.480;2022-12-18T13:18:02;6.87;;;3.77;;
14923;SDS011;7554;43.600;1.480;2022-12-18T13:20:43;6.30;;;3.97;;
14923;SDS011;7554;43.600;1.480;2022-12-18T13:29:03;5.20;;;2.90;;
14923;SDS011;7554;43.600;1.480;2022-12-18T13:34:26;4.97;;;3.40;;
14923;SDS011;7554;43.600;1.480;2022-12-18T13:37:35;5.73;;;3.40;;
14923;SDS011;7554;43.600;1.480;2022-12-18T13:40:05;4.17;;;3.10;;
14923;SDS011;7554;43.600;1.480;2022-12-18T13:43:27;4.00;;;2.87;;
14923;SDS011;7554;43.600;1.480;2022-12-18T13:48:52;6.07;;;3.67;;
14923;SDS011;7554;43.600;1.480;2022-12-18T13:51:24;6.10;;;3.90;;
14923;SDS011;7554;43.600;1.480;2022-12-18T13:53:55;5.73;;;3.73;;
14923;SDS011;7554;43.600;1.480;2022-12-18T13:56:26;5.50;;;3.70;;
14923;SDS011;7554;43.600;1.480;2022-12-18T13:59:15;6.67;;;4.80;;
14923;SDS011;7554;43.600;1.480;2022-12-18T14:01:48;7.30;;;5.10;;
14923;SDS011;7554;43.600;1.480;2022-12-18T14:04:19;6.13;;;4.00;;
14923;SDS011;7554;43.600;1.480;2022-12-18T14:06:50;6.13;;;3.83;;
14923;SDS011;7554;43.600;1.480;2022-12-18T14:09:23;3.87;;;3.03;;
14923;SDS011;7554;43.600;1.480;2022-12-18T14:11:52;4.50;;;3.07;;
14923;SDS011;7554;43.600;1.480;2022-12-18T14:14:43;6.70;;;3.50;;
14923;SDS011;7554;43.600;1.480;2022-12-18T14:17:13;6.20;;;3.77;;
14923;SDS011;7554;43.600;1.480;2022-12-18T14:19:43;6.00;;;4.20;;
14923;SDS011;7554;43.600;1.480;2022-12-18T14:22:14;5.33;;;3.37;;
14923;SDS011;7554;43.600;1.480;2022-12-18T14:24:44;3.93;;;2.90;;
14923;SDS011;7554;43.600;1.480;2022-12-18T14:27:19;5.43;;;3.20;;
14923;SDS011;7554;43.600;1.480;2022-12-18T14:29:49;5.90;;;2.90;;
14923;SDS011;7554;43.600;1.480;2022-12-18T14:32:17;6.37;;;3.50;;
14923;SDS011;7554;43.600;1.480;2022-12-18T14:34:46;4.67;;;3.07;;
14923;SDS011;7554;43.600;1.480;2022-12-18T14:37:15;6.03;;;3.80;;
14923;SDS011;7554;43.600;1.480;2022-12-18T14:39:57;4.30;;;2.57;;
14923;SDS011;7554;43.600;1.480;2022-12-18T14:42:26;4.33;;;3.27;;
14923;SDS011;7554;43.600;1.480;2022-12-18T14:48:06;7.83;;;5.20;;
14923;SDS011;7554;43.600;1.480;2022-12-18T14:50:35;8.03;;;5.00;;
14923;SDS011;7554;43.600;1.480;2022-12-18T14:53:02;8.27;;;4.80;;
14923;SDS011;7554;43.600;1.480;2022-12-18T14:55:34;6.40;;;4.10;;
14923;SDS011;7554;43.600;1.480;2022-12-18T14:58:02;8.80;;;5.20;;
14923;SDS011;7554;43.600;1.480;2022-12-18T15:00:30;5.70;;;3.47;;
14923;SDS011;7554;43.600;1.480;2022-12-18T15:02:57;6.03;;;2.63;;
14923;SDS011;7554;43.600;1.480;2022-12-18T15:05:25;7.07;;;3.53;;
14923;SDS011;7554;43.600;1.480;2022-12-18T15:07:55;4.40;;;3.00;;
14923;SDS011;7554;43.600;1.480;2022-12-18T15:10:24;7.00;;;4.23;;
14923;SDS011;7554;43.600;1.480;2022-12-18T15:13:15;7.17;;;4.33;;
14923;SDS011;7554;43.600;1.480;2022-12-18T15:15:48;7.50;;;4.00;;
14923;SDS011;7554;43.600;1.480;2022-12-18T15:18:17;5.30;;;3.03;;
14923;SDS011;7554;43.600;1.480;2022-12-18T15:20:47;4.67;;;3.30;;
14923;SDS011;7554;43.600;1.480;2022-12-18T15:23:19;5.13;;;3.13;;
14923;SDS011;7554;43.600;1.480;2022-12-18T15:25:49;8.70;;;4.27;;
14923;SDS011;7554;43.600;1.480;2022-12-18T15:28:24;5.70;;;2.60;;
14923;SDS011;7554;43.600;1.480;2022-12-18T15:31:00;5.57;;;3.77;;
14923;SDS011;7554;43.600;1.480;2022-12-18T15:33:30;6.13;;;3.10;;
14923;SDS011;7554;43.600;1.480;2022-12-18T15:36:00;8.10;;;4.90;;
14923;SDS011;7554;43.600;1.480;2022-12-18T15:38:29;7.43;;;4.83;;
14923;SDS011;7554;43.600;1.480;2022-12-18T15:40:57;6.67;;;3.90;;